Time;durP1;ratioP1;P1;durP2;ratioP2;P2;SDS_P1;SDS_P2;PMS_P1;PMS_P2;Temp;Humidity;BMP_temperature;BMP_pressure;BME280_temperature;BME280_humidity;BME280_pressure;Samples;Min_cycle;Max_cycle;Signal;HPM_P1;HPM_P2
2022/07/12 00:02:16;;;;;;;9.13;8.23;;;17.70;99.90;;;;;;6213163;23;20180;-80
2022/07/12 00:04:41;;;;;;;9.20;8.30;;;17.70;99.90;;;;;;6214110;23;20153;-87
2022/07/12 00:07:07;;;;;;;8.35;7.55;;;17.70;99.90;;;;;;6214968;23;20160;-81
2022/07/12 00:09:35;;;;;;;9.68;8.00;;;17.70;99.90;;;;;;6215663;23;20163;-88
2022/07/12 00:12:01;;;;;;;9.48;8.57;;;17.60;99.90;;;;;;6213136;23;20193;-79
2022/07/12 00:14:26;;;;;;;8.95;8.05;;;17.60;99.90;;;;;;6213811;23;20150;-81
2022/07/12 00:16:52;;;;;;;9.13;8.23;;;17.60;99.90;;;;;;6220185;23;20160;-86
2022/07/12 00:19:18;;;;;;;9.35;8.38;;;17.60;99.90;;;;;;6215138;23;20156;-85
2022/07/12 00:21:44;;;;;;;9.68;8.77;;;17.50;99.90;;;;;;6213857;23;20149;-84
2022/07/12 00:24:09;;;;;;;8.63;7.82;;;17.50;99.90;;;;;;6212348;23;20161;-79
2022/07/12 00:26:35;;;;;;;9.32;8.43;;;17.50;99.90;;;;;;6216509;23;20149;-82
2022/07/12 00:29:01;;;;;;;9.77;8.80;;;17.40;99.90;;;;;;6213310;23;20189;-82
2022/07/12 00:31:31;;;;;;;9.25;8.35;;;17.40;99.90;;;;;;6218265;23;20153;-83
2022/07/12 00:33:57;;;;;;;9.27;8.15;;;17.30;99.90;;;;;;6223856;23;20185;-81
2022/07/12 00:36:22;;;;;;;9.23;8.32;;;17.30;99.90;;;;;;6226862;23;20235;-74
2022/07/12 00:38:48;;;;;;;9.63;8.63;;;17.30;99.90;;;;;;6216141;23;20236;-87
2022/07/12 00:41:14;;;;;;;9.80;8.90;;;17.30;99.90;;;;;;6213505;23;20219;-87
2022/07/12 00:43:40;;;;;;;9.38;8.40;;;17.20;99.90;;;;;;6213082;23;20319;-85
2022/07/12 00:46:06;;;;;;;9.27;8.38;;;17.20;99.90;;;;;;6215442;23;20154;-77
2022/07/12 00:48:36;;;;;;;10.15;8.40;;;17.20;99.90;;;;;;6215711;23;20153;-87
2022/07/12 00:51:02;;;;;;;9.45;8.45;;;17.20;99.90;;;;;;6214697;23;20164;-88
2022/07/12 00:53:29;;;;;;;10.05;9.05;;;17.20;99.90;;;;;;6214073;23;20185;-85
2022/07/12 00:55:56;;;;;;;10.23;8.95;;;17.10;99.90;;;;;;6214661;23;20340;-83
2022/07/12 00:58:23;;;;;;;10.55;8.50;;;17.10;99.90;;;;;;6216999;23;20193;-86
2022/07/12 01:00:49;;;;;;;9.73;8.40;;;17.00;99.90;;;;;;6217211;23;20184;-75
2022/07/12 01:03:15;;;;;;;10.00;9.00;;;17.00;99.90;;;;;;6224028;23;20164;-84
2022/07/12 01:05:41;;;;;;;9.15;8.25;;;17.00;99.90;;;;;;6217833;23;20157;-84
2022/07/12 01:08:14;;;;;;;9.40;8.40;;;17.00;99.90;;;;;;6215994;23;20297;-86
2022/07/12 01:10:43;;;;;;;9.25;8.35;;;16.90;99.90;;;;;;6215001;23;20157;-88
2022/07/12 01:13:11;;;;;;;10.02;9.02;;;16.90;99.90;;;;;;6214797;23;20235;-83
2022/07/12 01:15:39;;;;;;;8.93;8.02;;;16.90;99.90;;;;;;6214655;23;20208;-75
2022/07/12 01:18:12;;;;;;;9.95;9.00;;;16.90;99.90;;;;;;6213851;23;20161;-77
2022/07/12 01:20:38;;;;;;;8.82;7.93;;;16.80;99.90;;;;;;6213767;23;20350;-75
2022/07/12 01:23:06;;;;;;;9.27;8.25;;;16.80;99.90;;;;;;6213662;23;20153;-74
2022/07/12 01:25:32;;;;;;;9.68;8.43;;;16.80;99.90;;;;;;6213335;23;20153;-76
2022/07/12 01:28:01;;;;;;;9.93;8.73;;;16.80;99.90;;;;;;6213379;23;20153;-74
2022/07/12 01:30:29;;;;;;;9.30;8.38;;;16.80;99.90;;;;;;6213252;23;20171;-76
2022/07/12 01:32:55;;;;;;;8.82;7.85;;;16.80;99.90;;;;;;6214216;23;20272;-74
2022/07/12 01:35:21;;;;;;;9.65;8.65;;;16.70;99.90;;;;;;6213922;23;20164;-76
2022/07/12 01:37:47;;;;;;;9.55;8.55;;;16.70;99.90;;;;;;6213045;23;20157;-76
2022/07/12 01:40:16;;;;;;;9.15;8.25;;;16.70;99.90;;;;;;6214451;23;20154;-76
2022/07/12 01:42:44;;;;;;;9.45;8.55;;;16.70;99.90;;;;;;6213696;23;20153;-76
2022/07/12 01:45:14;;;;;;;9.20;8.25;;;16.70;99.90;;;;;;6213741;23;20160;-75
2022/07/12 01:47:45;;;;;;;9.23;8.32;;;16.70;99.90;;;;;;6213779;23;20157;-78
2022/07/12 01:50:11;;;;;;;9.15;8.25;;;16.60;99.90;;;;;;6214274;23;20254;-77
2022/07/12 01:52:39;;;;;;;9.20;8.30;;;16.60;99.90;;;;;;6213934;23;20197;-76
2022/07/12 01:55:06;;;;;;;9.93;8.93;;;16.60;99.90;;;;;;6214148;23;20157;-76
2022/07/12 01:57:32;;;;;;;9.38;8.48;;;16.60;99.90;;;;;;6213667;23;20256;-74
2022/07/12 02:00:04;;;;;;;10.20;8.32;;;16.60;99.90;;;;;;6213772;23;20308;-72
2022/07/12 02:02:35;;;;;;;8.98;8.07;;;16.50;99.90;;;;;;6213892;23;20248;-78
2022/07/12 02:05:02;;;;;;;10.13;9.13;;;16.50;99.90;;;;;;6223686;23;20183;-66
2022/07/12 02:07:30;;;;;;;9.70;8.80;;;16.50;99.90;;;;;;6235452;23;20228;-74
2022/07/12 02:09:57;;;;;;;10.20;9.20;;;16.50;99.90;;;;;;6218113;23;20329;-73
2022/07/12 02:12:27;;;;;;;9.75;8.75;;;16.40;99.90;;;;;;6215000;23;20177;-74
2022/07/12 02:14:55;;;;;;;10.00;8.80;;;16.40;99.90;;;;;;6213269;23;20149;-76
2022/07/12 02:17:21;;;;;;;9.95;8.95;;;16.40;99.90;;;;;;6214766;23;20149;-73
2022/07/12 02:19:47;;;;;;;9.43;8.40;;;16.30;99.90;;;;;;6216247;23;20217;-73
2022/07/12 02:22:12;;;;;;;9.55;8.55;;;16.30;99.90;;;;;;6217609;23;20158;-73
2022/07/12 02:24:38;;;;;;;9.45;8.40;;;16.30;99.90;;;;;;6237928;23;20216;-71
2022/07/12 02:27:04;;;;;;;10.02;8.13;;;16.30;99.90;;;;;;6224159;23;20161;-77
2022/07/12 02:29:30;;;;;;;8.95;8.05;;;16.20;99.90;;;;;;6214888;23;20189;-73
2022/07/12 02:31:56;;;;;;;9.93;8.45;;;16.20;99.90;;;;;;6213593;23;20181;-77
2022/07/12 02:34:21;;;;;;;9.30;8.40;;;16.20;99.90;;;;;;6212807;23;20213;-75
2022/07/12 02:36:47;;;;;;;9.63;8.63;;;16.20;99.90;;;;;;6213294;23;20149;-75
2022/07/12 02:39:14;;;;;;;9.55;8.65;;;16.20;99.90;;;;;;6212971;23;20157;-77
2022/07/12 02:41:43;;;;;;;8.80;7.90;;;16.20;99.90;;;;;;6212710;23;20169;-76
2022/07/12 02:44:11;;;;;;;9.13;8.23;;;16.20;99.90;;;;;;6212886;23;20141;-76
2022/07/12 02:46:39;;;;;;;9.35;7.63;;;16.20;99.90;;;;;;6213413;23;20164;-76
2022/07/12 02:49:07;;;;;;;9.20;8.30;;;16.10;99.90;;;;;;6213446;23;20158;-77
2022/07/12 02:51:32;;;;;;;9.20;8.30;;;16.10;99.90;;;;;;6212436;23;20220;-76
2022/07/12 02:54:00;;;;;;;8.85;7.95;;;16.10;99.90;;;;;;6212581;23;20224;-71
2022/07/12 02:56:31;;;;;;;8.93;8.05;;;16.10;99.90;;;;;;6212990;23;20145;-74
2022/07/12 02:58:57;;;;;;;8.98;7.75;;;16.10;99.90;;;;;;6213214;23;20173;-74
2022/07/12 03:01:22;;;;;;;8.65;7.80;;;16.00;99.90;;;;;;6212678;23;20414;-76
2022/07/12 03:03:50;;;;;;;8.90;7.97;;;16.00;99.90;;;;;;6213344;23;20244;-75
2022/07/12 03:06:16;;;;;;;8.93;7.97;;;16.00;99.90;;;;;;6212541;23;20264;-73
2022/07/12 03:08:42;;;;;;;12.52;8.27;;;16.00;99.90;;;;;;6213706;23;20153;-75
2022/07/12 03:11:12;;;;;;;8.80;7.90;;;16.00;99.90;;;;;;6212433;23;20150;-77
2022/07/12 03:13:38;;;;;;;8.50;7.65;;;15.90;99.90;;;;;;6212892;23;20181;-76
2022/07/12 03:16:05;;;;;;;8.80;7.63;;;15.90;99.90;;;;;;6213676;23;20164;-77
2022/07/12 03:18:30;;;;;;;10.05;8.05;;;15.90;99.90;;;;;;6212663;23;20219;-76
2022/07/12 03:20:58;;;;;;;8.55;7.65;;;15.80;99.90;;;;;;6211773;23;20154;-70
2022/07/12 03:23:24;;;;;;;14.80;12.52;;;15.80;99.90;;;;;;6212532;23;20181;-75
2022/07/12 03:25:50;;;;;;;10.77;9.48;;;15.80;99.90;;;;;;6212653;23;20157;-75
2022/07/12 03:28:17;;;;;;;10.32;8.60;;;15.80;99.90;;;;;;6213383;23;20187;-75
2022/07/12 03:30:44;;;;;;;10.05;8.98;;;15.70;99.90;;;;;;6212473;23;20305;-74
2022/07/12 03:33:10;;;;;;;9.80;8.80;;;15.70;99.90;;;;;;6212887;23;20200;-75
2022/07/12 03:35:35;;;;;;;13.70;12.05;;;15.60;99.90;;;;;;6212811;23;20204;-76
2022/07/12 03:38:02;;;;;;;10.82;9.70;;;15.60;99.90;;;;;;6215627;23;20192;-74
2022/07/12 03:40:33;;;;;;;10.43;9.32;;;15.60;99.90;;;;;;6219454;23;20177;-75
2022/07/12 03:42:59;;;;;;;9.25;8.27;;;15.50;99.90;;;;;;6216602;23;20141;-72
2022/07/12 03:45:24;;;;;;;9.55;8.57;;;15.50;99.90;;;;;;6212943;23;20157;-76
2022/07/12 03:47:52;;;;;;;9.25;8.35;;;15.50;99.90;;;;;;6212976;23;20165;-76
2022/07/12 03:50:23;;;;;;;9.57;8.57;;;15.40;99.90;;;;;;6212211;23;20271;-76
2022/07/12 03:52:51;;;;;;;8.98;8.07;;;15.40;99.90;;;;;;6212026;23;20188;-75
2022/07/12 03:55:17;;;;;;;11.35;10.13;;;15.40;99.90;;;;;;6211668;23;20158;-77
2022/07/12 03:57:47;;;;;;;9.32;8.43;;;15.40;99.90;;;;;;6211906;23;20283;-77
2022/07/12 04:00:13;;;;;;;9.77;8.73;;;15.40;99.90;;;;;;6212053;23;20214;-77
2022/07/12 04:02:40;;;;;;;9.02;8.13;;;15.40;99.90;;;;;;6212473;23;20270;-76
2022/07/12 04:05:07;;;;;;;10.82;9.73;;;15.40;99.90;;;;;;6212473;23;20196;-73
2022/07/12 04:07:33;;;;;;;10.95;9.23;;;15.40;99.90;;;;;;6211615;23;20150;-74
2022/07/12 04:10:03;;;;;;;9.95;8.95;;;15.40;99.90;;;;;;6211870;23;20161;-73
2022/07/12 04:12:29;;;;;;;9.63;8.63;;;15.40;99.90;;;;;;6212063;23;20183;-75
2022/07/12 04:14:55;;;;;;;9.82;8.82;;;15.40;99.90;;;;;;6212431;23;20173;-75
2022/07/12 04:17:23;;;;;;;9.52;8.50;;;15.50;99.90;;;;;;6212038;23;20299;-76
2022/07/12 04:19:49;;;;;;;9.45;8.45;;;15.50;99.90;;;;;;6212389;23;20188;-71
2022/07/12 04:22:14;;;;;;;9.00;8.07;;;15.50;99.90;;;;;;6212561;23;20158;-76
2022/07/12 04:24:40;;;;;;;8.27;7.47;;;15.50;99.90;;;;;;6212666;23;20556;-72
2022/07/12 04:27:06;;;;;;;8.75;7.85;;;15.50;99.90;;;;;;6212260;23;20236;-74
2022/07/12 04:29:31;;;;;;;13.10;10.23;;;15.60;99.90;;;;;;6212291;23;20149;-75
2022/07/12 04:32:00;;;;;;;11.55;10.13;;;15.60;99.90;;;;;;6212402;23;20161;-74
2022/07/12 04:34:26;;;;;;;10.48;9.38;;;15.70;99.90;;;;;;6212553;23;20236;-75
2022/07/12 04:36:54;;;;;;;10.13;9.05;;;15.70;99.90;;;;;;6214662;23;20180;-74
2022/07/12 04:39:23;;;;;;;10.80;9.55;;;15.70;99.90;;;;;;6227029;23;20145;-65
2022/07/12 04:41:49;;;;;;;10.48;9.38;;;15.80;99.90;;;;;;6221476;23;20165;-76
2022/07/12 04:44:14;;;;;;;9.52;8.13;;;15.70;99.90;;;;;;6216057;23;20218;-75
2022/07/12 04:46:40;;;;;;;9.32;8.27;;;15.80;99.90;;;;;;6215442;23;20157;-75
2022/07/12 04:49:06;;;;;;;9.70;8.48;;;15.80;99.90;;;;;;6214811;23;20168;-75
2022/07/12 04:51:34;;;;;;;9.60;8.60;;;15.80;99.90;;;;;;6214930;23;20192;-76
2022/07/12 04:54:03;;;;;;;9.10;8.20;;;15.80;99.90;;;;;;6213358;23;20177;-77
2022/07/12 04:56:31;;;;;;;9.25;8.35;;;15.80;99.90;;;;;;6214270;23;20149;-75
2022/07/12 04:58:59;;;;;;;9.70;8.20;;;15.80;99.90;;;;;;6213356;23;20165;-77
2022/07/12 05:01:27;;;;;;;8.85;7.95;;;15.90;99.90;;;;;;6214187;23;20211;-76
2022/07/12 05:03:52;;;;;;;9.13;8.02;;;15.90;99.90;;;;;;6214431;23;20265;-77
2022/07/12 05:06:18;;;;;;;10.23;8.55;;;15.90;99.90;;;;;;6213709;23;20200;-77
2022/07/12 05:08:44;;;;;;;9.45;8.50;;;16.00;99.90;;;;;;6214569;23;20161;-75
2022/07/12 05:11:09;;;;;;;9.63;8.48;;;16.00;99.90;;;;;;6213348;23;20168;-77
2022/07/12 05:13:35;;;;;;;11.27;8.35;;;16.10;99.90;;;;;;6214485;23;20184;-73
2022/07/12 05:16:01;;;;;;;9.95;8.88;;;16.10;99.90;;;;;;6188791;23;20157;-77
2022/07/12 05:18:26;;;;;;;9.30;8.30;;;16.10;99.90;;;;;;6214327;23;20451;-74
2022/07/12 05:20:52;;;;;;;9.85;8.52;;;16.20;99.90;;;;;;6213692;23;20149;-78
2022/07/12 05:23:21;;;;;;;9.88;8.85;;;16.20;99.90;;;;;;6213689;23;20232;-71
2022/07/12 05:25:47;;;;;;;10.45;8.85;;;16.30;99.90;;;;;;6214707;23;20240;-73
2022/07/12 05:28:15;;;;;;;9.75;8.73;;;16.40;99.90;;;;;;6213615;23;20176;-76
2022/07/12 05:30:42;;;;;;;9.73;8.73;;;16.50;99.90;;;;;;6213919;23;20253;-73
2022/07/12 05:33:08;;;;;;;9.88;8.88;;;16.50;99.90;;;;;;6213234;23;20177;-77
2022/07/12 05:35:36;;;;;;;9.60;8.60;;;16.60;99.90;;;;;;6213718;23;20154;-72
2022/07/12 05:38:02;;;;;;;9.68;8.70;;;16.70;99.90;;;;;;6213572;23;20157;-75
2022/07/12 05:40:28;;;;;;;9.75;8.80;;;16.70;99.90;;;;;;6213138;23;20150;-77
2022/07/12 05:42:54;;;;;;;11.60;10.25;;;16.80;99.90;;;;;;6213460;23;20211;-78
2022/07/12 05:45:19;;;;;;;12.70;9.88;;;16.90;99.90;;;;;;6214958;23;20153;-79
2022/07/12 05:47:45;;;;;;;10.32;9.25;;;16.90;99.90;;;;;;6214092;23;20165;-80
2022/07/12 05:50:13;;;;;;;11.23;9.63;;;17.00;99.90;;;;;;6218400;23;20158;-78
2022/07/12 05:55:23;;;;;;;10.25;9.10;;;17.10;99.90;;;;;;6215346;23;20200;-80
2022/07/12 05:57:50;;;;;;;10.77;9.57;;;17.20;99.90;;;;;;6213252;23;20169;-77
2022/07/12 06:00:16;;;;;;;10.63;9.30;;;17.30;99.90;;;;;;6213639;23;20195;-80
2022/07/12 06:02:42;;;;;;;11.52;10.32;;;17.30;99.90;;;;;;6215009;23;20212;-75
2022/07/12 06:05:07;;;;;;;11.05;9.95;;;17.40;99.90;;;;;;6214362;23;20188;-76
2022/07/12 06:07:33;;;;;;;11.30;8.88;;;17.50;99.90;;;;;;6213743;23;20164;-75
2022/07/12 06:09:59;;;;;;;11.00;9.40;;;17.60;99.90;;;;;;6213000;23;20153;-76
2022/07/12 06:12:25;;;;;;;11.00;9.90;;;17.60;99.90;;;;;;6213855;23;20177;-78
2022/07/12 06:14:51;;;;;;;11.68;10.30;;;17.70;99.90;;;;;;6213486;23;20172;-76
2022/07/12 06:17:21;;;;;;;10.27;9.23;;;17.70;99.90;;;;;;6214091;23;20150;-77
2022/07/12 06:19:49;;;;;;;13.00;10.07;;;17.80;99.90;;;;;;6214575;23;20156;-75
2022/07/12 06:22:17;;;;;;;11.18;9.57;;;17.80;99.90;;;;;;6226333;23;20157;-74
2022/07/12 06:24:45;;;;;;;10.95;9.82;;;17.90;99.90;;;;;;6217635;23;20219;-78
2022/07/12 06:27:10;;;;;;;13.82;10.25;;;18.00;99.90;;;;;;6213738;23;20229;-75
2022/07/12 06:29:36;;;;;;;13.82;9.82;;;18.00;99.90;;;;;;6214103;23;20157;-77
2022/07/12 06:32:04;;;;;;;10.68;9.27;;;18.10;99.90;;;;;;6214347;23;20158;-78
2022/07/12 06:34:31;;;;;;;11.05;9.88;;;18.10;99.90;;;;;;6211959;23;20157;-76
2022/07/12 06:36:57;;;;;;;11.55;10.35;;;18.20;99.90;;;;;;6213894;23;20224;-74
2022/07/12 06:39:25;;;;;;;11.77;10.55;;;18.20;99.90;;;;;;6212780;23;20255;-75
2022/07/12 06:41:53;;;;;;;12.10;10.27;;;18.30;99.90;;;;;;6215262;23;20156;-73
2022/07/12 06:44:18;;;;;;;12.60;11.13;;;18.40;99.90;;;;;;6211996;23;20165;-76
2022/07/12 06:46:48;;;;;;;12.02;9.95;;;18.40;99.90;;;;;;6212386;23;20233;-74
2022/07/12 06:49:14;;;;;;;11.07;9.68;;;18.50;99.90;;;;;;6213553;23;20149;-77
2022/07/12 06:51:40;;;;;;;11.60;10.40;;;18.60;99.90;;;;;;6212791;23;20400;-71
2022/07/12 06:54:08;;;;;;;15.05;10.30;;;18.70;99.90;;;;;;6213137;23;20242;-78
2022/07/12 06:56:33;;;;;;;12.32;9.68;;;18.70;99.90;;;;;;6212415;23;20215;-75
2022/07/12 06:59:01;;;;;;;11.45;10.25;;;18.80;99.90;;;;;;6212225;23;20173;-77
2022/07/12 07:01:26;;;;;;;11.80;10.35;;;18.90;99.90;;;;;;6212553;23;20625;-77
2022/07/12 07:03:52;;;;;;;11.38;10.23;;;19.00;99.90;;;;;;6212446;23;20243;-76
2022/07/12 07:06:18;;;;;;;10.13;9.07;;;19.00;99.90;;;;;;6212815;23;20216;-76
2022/07/12 07:08:44;;;;;;;9.68;8.77;;;19.10;99.90;;;;;;6213524;23;20224;-78
2022/07/12 07:11:10;;;;;;;9.73;8.73;;;19.20;99.90;;;;;;6212491;23;20161;-77
2022/07/12 07:13:35;;;;;;;9.93;8.93;;;19.30;99.90;;;;;;6212602;23;20287;-74
2022/07/12 07:16:01;;;;;;;10.13;9.13;;;19.40;99.90;;;;;;6212150;23;20243;-76
2022/07/12 07:18:27;;;;;;;10.23;9.23;;;19.40;99.90;;;;;;6213465;23;20235;-76
2022/07/12 07:20:55;;;;;;;9.68;8.73;;;19.50;99.90;;;;;;6212748;23;20153;-77
2022/07/12 07:23:23;;;;;;;8.63;7.78;;;19.60;99.90;;;;;;6212912;23;20153;-76
2022/07/12 07:25:51;;;;;;;8.68;7.78;;;19.70;99.90;;;;;;6211926;23;20157;-74
2022/07/12 07:28:18;;;;;;;7.22;6.50;;;19.70;99.90;;;;;;6212217;23;20202;-74
2022/07/12 07:30:56;;;;;;;7.15;6.15;;;19.80;99.90;;;;;;6212998;23;20161;-78
2022/07/12 07:33:23;;;;;;;7.45;6.65;;;19.90;99.90;;;;;;6212804;23;20196;-75
2022/07/12 07:35:51;;;;;;;7.93;6.47;;;20.00;99.90;;;;;;6216208;23;20229;-77
2022/07/12 07:38:19;;;;;;;7.20;6.45;;;20.10;99.90;;;;;;6217687;23;20169;-77
2022/07/12 07:40:44;;;;;;;7.38;6.63;;;20.20;99.90;;;;;;6212392;23;20165;-78
2022/07/12 07:43:10;;;;;;;6.78;6.07;;;20.30;99.90;;;;;;6212688;23;20149;-78
2022/07/12 07:45:38;;;;;;;6.38;5.78;;;20.40;99.90;;;;;;6211397;23;20242;-76
2022/07/12 07:48:04;;;;;;;6.85;5.85;;;20.40;99.90;;;;;;6212633;23;20287;-74
2022/07/12 07:50:30;;;;;;;6.28;5.68;;;20.50;99.90;;;;;;6213503;23;20215;-73
2022/07/12 07:52:56;;;;;;;5.90;5.35;;;20.60;99.90;;;;;;6214824;23;20273;-77
2022/07/12 07:55:21;;;;;;;8.95;5.68;;;20.70;99.90;;;;;;6229482;23;20233;-67
2022/07/12 07:57:49;;;;;;;7.68;6.93;;;20.70;99.90;;;;;;6236918;23;20180;-67
2022/07/12 08:00:15;;;;;;;7.15;6.45;;;20.90;99.90;;;;;;6222370;23;20459;-77
2022/07/12 08:02:41;;;;;;;7.30;6.45;;;20.90;99.90;;;;;;6215126;23;20149;-77
2022/07/12 08:05:09;;;;;;;5.78;5.28;;;21.00;99.90;;;;;;6212862;23;20172;-74
2022/07/12 08:07:35;;;;;;;5.82;5.10;;;21.10;99.90;;;;;;6211936;23;20160;-74
2022/07/12 08:10:01;;;;;;;6.78;4.93;;;21.10;99.90;;;;;;6211205;23;20153;-77
2022/07/12 08:12:26;;;;;;;4.78;4.28;;;21.20;99.90;;;;;;6211381;23;20184;-74
2022/07/12 08:14:52;;;;;;;4.70;4.20;;;21.30;99.90;;;;;;6211965;23;20224;-76
2022/07/12 08:17:18;;;;;;;4.22;3.80;;;21.40;99.90;;;;;;6212176;23;20157;-72
2022/07/12 08:19:46;;;;;;;3.30;3.00;;;21.50;99.90;;;;;;6212830;23;20223;-76
2022/07/12 08:22:14;;;;;;;4.20;3.80;;;21.60;99.90;;;;;;6212528;23;20165;-73
2022/07/12 08:24:41;;;;;;;4.20;3.50;;;21.70;99.90;;;;;;6212367;23;20232;-75
2022/07/12 08:27:07;;;;;;;4.35;3.53;;;21.80;99.90;;;;;;6211811;23;20183;-72
2022/07/12 08:29:33;;;;;;;4.20;3.65;;;21.90;99.90;;;;;;6212338;23;20188;-77
2022/07/12 08:32:01;;;;;;;3.60;3.30;;;21.90;99.90;;;;;;6211324;23;20181;-78
2022/07/12 08:34:27;;;;;;;3.47;3.17;;;22.00;99.90;;;;;;6211976;23;20154;-74
2022/07/12 08:36:54;;;;;;;5.03;3.40;;;22.10;99.90;;;;;;6212101;23;20153;-76
2022/07/12 08:39:20;;;;;;;2.47;2.28;;;22.20;99.90;;;;;;6212133;23;20153;-75
2022/07/12 08:41:46;;;;;;;2.58;2.38;;;22.30;99.90;;;;;;6212268;23;20339;-71
2022/07/12 08:44:14;;;;;;;3.92;2.28;;;22.40;99.90;;;;;;6214264;23;20271;-75
2022/07/12 08:46:40;;;;;;;2.30;2.10;;;22.40;99.90;;;;;;6211963;23;20168;-72
2022/07/12 08:49:09;;;;;;;2.60;2.40;;;22.50;99.90;;;;;;6212262;23;20153;-73
2022/07/12 08:51:35;;;;;;;2.10;1.90;;;22.60;99.90;;;;;;6212287;23;20172;-73
2022/07/12 08:54:13;;;;;;;2.30;2.10;;;22.70;99.90;;;;;;6211655;23;20185;-75
2022/07/12 08:56:41;;;;;;;1.95;1.80;;;22.70;99.90;;;;;;6212826;23;20177;-75
2022/07/12 08:59:21;;;;;;;2.85;2.58;;;22.80;99.90;;;;;;6211946;23;20183;-75
2022/07/12 09:01:51;;;;;;;2.05;1.85;;;22.90;99.90;;;;;;6212310;23;20435;-72
2022/07/12 09:04:22;;;;;;;2.05;1.85;;;23.00;99.90;;;;;;6212587;23;20157;-75
2022/07/12 09:06:48;;;;;;;1.80;1.70;;;23.00;99.90;;;;;;6211850;23;20156;-79
2022/07/12 09:09:37;;;;;;;1.70;1.50;;;23.00;99.90;;;;;;6211897;23;20165;-72
2022/07/12 09:12:03;;;;;;;1.60;1.50;;;23.10;99.90;;;;;;6211758;23;20161;-73
2022/07/12 09:14:31;;;;;;;1.80;1.45;;;23.10;99.90;;;;;;6211504;23;20237;-74
2022/07/12 09:17:12;;;;;;;1.70;1.60;;;23.20;99.90;;;;;;6212917;23;20158;-74
2022/07/12 09:19:39;;;;;;;2.35;1.70;;;23.30;99.90;;;;;;6211310;23;20153;-72
2022/07/12 09:22:18;;;;;;;1.98;1.77;;;23.40;99.90;;;;;;6211424;23;20173;-74
2022/07/12 09:24:44;;;;;;;1.80;1.70;;;23.40;99.90;;;;;;6216271;23;20192;-71
2022/07/12 09:27:09;;;;;;;2.83;1.70;;;23.60;99.90;;;;;;6219845;23;20178;-71
2022/07/12 09:29:55;;;;;;;1.63;1.40;;;23.60;99.90;;;;;;6226747;23;20187;-70
2022/07/12 09:37:52;;;;;;;1.48;1.30;;;23.80;99.90;;;;;;6221029;23;20147;-66
2022/07/12 09:40:23;;;;;;;1.35;1.25;;;23.90;99.90;;;;;;6216971;23;20201;-72
2022/07/12 09:42:49;;;;;;;2.72;1.40;;;24.00;99.90;;;;;;6221056;23;20170;-71
2022/07/12 09:45:17;;;;;;;1.50;1.40;;;24.00;99.90;;;;;;6221903;23;20149;-71
2022/07/12 09:47:48;;;;;;;1.13;1.02;;;24.10;99.90;;;;;;6221664;23;20133;-68
2022/07/12 09:50:18;;;;;;;1.33;1.10;;;24.20;99.90;;;;;;6222189;23;20208;-71
2022/07/12 09:52:48;;;;;;;1.55;1.40;;;24.30;99.90;;;;;;6215613;23;20206;-72
2022/07/12 09:55:17;;;;;;;1.38;1.10;;;24.30;99.90;;;;;;6216484;23;20153;-68
2022/07/12 09:57:46;;;;;;;3.13;1.10;;;24.40;99.90;;;;;;6225344;23;20180;-71
2022/07/12 10:00:12;;;;;;;1.33;1.00;;;24.50;99.90;;;;;;6220505;23;20149;-72
2022/07/12 10:02:39;;;;;;;1.33;1.00;;;24.60;99.90;;;;;;6219786;23;20237;-69
2022/07/12 10:05:09;;;;;;;1.15;1.05;;;24.60;99.90;;;;;;6220477;23;20177;-70
2022/07/12 10:07:37;;;;;;;1.25;1.15;;;24.70;99.90;;;;;;6219974;23;20236;-72
2022/07/12 10:10:07;;;;;;;2.20;1.35;;;24.80;99.90;;;;;;6218809;23;20157;-72
2022/07/12 10:12:36;;;;;;;1.40;1.30;;;24.90;99.90;;;;;;6222696;23;20188;-69
2022/07/12 10:15:07;;;;;;;2.05;1.58;;;25.00;99.90;;;;;;6218660;23;20149;-72
2022/07/12 10:17:34;;;;;;;1.30;1.20;;;25.10;99.90;;;;;;6217014;23;20156;-73
2022/07/12 10:20:19;;;;;;;1.30;1.20;;;25.20;99.90;;;;;;6220946;23;20549;-70
2022/07/12 10:22:45;;;;;;;1.40;1.15;;;25.40;99.90;;;;;;6216620;23;20213;-74
2022/07/12 10:25:32;;;;;;;1.33;1.20;;;25.40;99.90;;;;;;6218131;23;20157;-73
2022/07/12 10:27:58;;;;;;;1.35;1.25;;;25.50;99.90;;;;;;6216876;23;20160;-72
2022/07/12 10:30:24;;;;;;;1.50;1.35;;;25.60;99.90;;;;;;6215715;23;20236;-74
2022/07/12 10:32:59;;;;;;;1.98;1.63;;;25.80;99.90;;;;;;6215452;23;20177;-72
2022/07/12 10:35:31;;;;;;;1.60;1.33;;;25.80;99.90;;;;;;6216924;23;20228;-74
2022/07/12 10:38:12;;;;;;;1.77;1.20;;;26.00;99.90;;;;;;6221211;23;20153;-73
2022/07/12 10:40:43;;;;;;;1.50;1.40;;;26.20;99.90;;;;;;6216052;23;20177;-73
2022/07/12 10:43:09;;;;;;;1.27;1.17;;;26.30;99.90;;;;;;6215425;23;20157;-74
2022/07/12 10:45:38;;;;;;;1.52;1.33;;;26.60;99.90;;;;;;6213732;23;20161;-74
2022/07/12 10:48:07;;;;;;;1.27;1.17;;;26.90;99.90;;;;;;6216329;23;20172;-72
2022/07/12 10:53:22;;;;;;;1.55;1.20;;;27.30;99.90;;;;;;6215176;23;20271;-71
2022/07/12 10:56:06;;;;;;;2.38;1.40;;;27.50;99.90;;;;;;6212853;23;20156;-73
2022/07/12 10:58:32;;;;;;;1.60;1.20;;;27.70;99.90;;;;;;6214314;23;20173;-72
2022/07/12 11:01:12;;;;;;;1.52;1.30;;;27.90;99.90;;;;;;6216540;23;20227;-69
2022/07/12 11:03:43;;;;;;;1.30;1.20;;;28.10;99.90;;;;;;6215192;23;20227;-72
2022/07/12 11:06:12;;;;;;;2.00;1.30;;;28.40;99.90;;;;;;6219137;23;20236;-72
2022/07/12 11:08:48;;;;;;;1.40;1.20;;;28.60;99.90;;;;;;6224059;23;20176;-68
2022/07/12 11:11:14;;;;;;;1.50;1.25;;;28.80;99.90;;;;;;6224634;23;20156;-73
2022/07/12 11:13:39;;;;;;;1.63;1.52;;;29.00;99.90;;;;;;6218374;23;20211;-71
2022/07/12 11:16:07;;;;;;;1.35;1.25;;;29.20;99.90;;;;;;6219421;23;20191;-70
2022/07/12 11:18:34;;;;;;;1.30;1.20;;;29.40;99.90;;;;;;6215944;23;20145;-71
2022/07/12 11:21:01;;;;;;;1.45;1.35;;;29.60;99.90;;;;;;6215583;23;20183;-72
2022/07/12 11:23:28;;;;;;;1.35;1.25;;;29.70;99.90;;;;;;6217412;23;20156;-73
2022/07/12 11:26:01;;;;;;;1.50;1.30;;;29.80;99.90;;;;;;6217818;23;20153;-71
2022/07/12 11:28:31;;;;;;;2.35;1.20;;;30.00;99.90;;;;;;6214086;23;20137;-74
2022/07/12 11:31:05;;;;;;;1.20;1.10;;;30.00;99.90;;;;;;6214395;23;20148;-72
2022/07/12 11:33:34;;;;;;;1.50;1.10;;;30.00;99.90;;;;;;6213773;23;20183;-75
2022/07/12 11:36:10;;;;;;;1.20;1.10;;;30.10;99.90;;;;;;6213503;23;20168;-75
2022/07/12 11:38:38;;;;;;;2.38;1.23;;;30.20;99.90;;;;;;6212626;23;20149;-72
2022/07/12 11:41:05;;;;;;;1.45;1.30;;;30.20;99.90;;;;;;6212696;23;20149;-76
2022/07/12 11:43:33;;;;;;;1.50;1.20;;;30.30;99.90;;;;;;6213643;23;20185;-72
2022/07/12 11:45:59;;;;;;;1.20;1.10;;;30.40;99.90;;;;;;6212965;23;20171;-72
2022/07/12 11:48:29;;;;;;;1.55;1.20;;;30.50;99.90;;;;;;6213332;23;20178;-71
2022/07/12 11:50:55;;;;;;;1.40;1.10;;;30.70;99.90;;;;;;6213307;23;20163;-72
2022/07/12 11:53:24;;;;;;;1.33;1.23;;;30.80;99.90;;;;;;6213898;23;20260;-72
2022/07/12 11:55:56;;;;;;;1.20;1.10;;;30.90;99.90;;;;;;6213349;23;20160;-72
2022/07/12 11:58:25;;;;;;;1.75;1.15;;;31.00;99.90;;;;;;6212711;23;20195;-72
2022/07/12 12:00:52;;;;;;;1.30;1.20;;;31.20;99.90;;;;;;6212815;23;20165;-73
2022/07/12 12:03:24;;;;;;;1.27;1.00;;;31.20;99.90;;;;;;6212356;23;20301;-70
2022/07/12 12:05:55;;;;;;;1.13;1.02;;;31.40;99.90;;;;;;6213066;23;20256;-72
2022/07/12 12:08:21;;;;;;;1.10;0.90;;;31.50;99.90;;;;;;6213276;23;20321;-72
2022/07/12 12:10:56;;;;;;;1.20;1.10;;;31.60;99.90;;;;;;6213398;23;20184;-72
2022/07/12 12:13:22;;;;;;;1.33;1.23;;;31.70;99.90;;;;;;6213196;23;20271;-72
2022/07/12 12:15:52;;;;;;;1.30;1.20;;;31.80;99.90;;;;;;6214080;23;20176;-73
2022/07/12 12:18:38;;;;;;;1.58;1.15;;;31.90;99.90;;;;;;6213007;23;20212;-72
2022/07/12 12:21:11;;;;;;;1.45;1.10;;;32.00;98.40;;;;;;6212558;23;20264;-74
2022/07/12 12:23:39;;;;;;;1.20;1.10;;;32.10;99.60;;;;;;6213378;23;20153;-72
2022/07/12 12:26:15;;;;;;;1.08;0.98;;;32.10;99.90;;;;;;6212977;23;20152;-74
2022/07/12 12:28:48;;;;;;;3.80;1.10;;;32.20;97.80;;;;;;6213265;23;20177;-71
2022/07/12 12:31:16;;;;;;;1.42;0.90;;;32.30;98.10;;;;;;6213410;23;20156;-72
2022/07/12 12:33:51;;;;;;;2.03;1.00;;;32.30;98.80;;;;;;6212527;23;20191;-72
2022/07/12 12:36:35;;;;;;;1.25;0.93;;;32.40;96.70;;;;;;6213354;23;20206;-73
2022/07/12 12:39:05;;;;;;;1.10;0.90;;;32.50;96.70;;;;;;6212854;23;20159;-72
2022/07/12 12:41:41;;;;;;;1.40;0.93;;;32.60;98.40;;;;;;6214284;23;20187;-72
2022/07/12 12:44:12;;;;;;;1.00;0.90;;;32.70;96.30;;;;;;6214546;23;20238;-68
2022/07/12 12:49:46;;;;;;;1.23;1.10;;;32.70;94.10;;;;;;6215396;23;20151;-72
2022/07/12 12:52:18;;;;;;;1.95;0.90;;;32.70;94.50;;;;;;6218731;23;20152;-71
2022/07/12 12:54:45;;;;;;;1.48;0.88;;;32.70;95.20;;;;;;6219112;23;20248;-69
2022/07/12 12:57:13;;;;;;;1.00;0.93;;;32.60;95.60;;;;;;6216681;23;20403;-75
2022/07/12 12:59:41;;;;;;;1.08;0.98;;;32.60;95.40;;;;;;6223617;23;20180;-72
2022/07/12 13:02:10;;;;;;;1.40;0.77;;;32.60;94.70;;;;;;6215905;23;20157;-71